createdAt,value
2018-10-04T00:00:22.415Z,9.97
2018-10-04T00:01:31.054Z,9.97
2018-10-04T00:02:39.693Z,9.97
2018-10-04T00:03:48.337Z,9.9
2018-10-04T00:04:56.976Z,10.05
2018-10-04T00:06:05.882Z,9.99
2018-10-04T00:07:14.530Z,9.99
2018-10-04T00:08:23.167Z,10.06
2018-10-04T00:09:31.807Z,10.06
2018-10-04T00:10:40.447Z,10.1
2018-10-04T00:11:49.090Z,10.23
2018-10-04T00:12:57.731Z,10.18
2018-10-04T00:14:06.370Z,10.17
2018-10-04T00:15:15.276Z,10.17
2018-10-04T00:16:23.916Z,10.15
2018-10-04T00:17:32.551Z,10.18
2018-10-04T00:18:41.196Z,10.28
2018-10-04T00:19:49.838Z,10.24
2018-10-04T00:20:58.477Z,10.3
2018-10-04T00:22:07.379Z,10.3
2018-10-04T00:23:16.022Z,10.31
2018-10-04T00:24:24.661Z,10.31
2018-10-04T00:25:33.569Z,10.36
2018-10-04T00:26:42.204Z,10.38
2018-10-04T00:27:50.848Z,10.33
2018-10-04T00:28:59.487Z,10.36
2018-10-04T00:30:08.132Z,10.41
2018-10-04T00:31:16.775Z,10.46
2018-10-04T00:32:25.413Z,10.41
2018-10-04T00:33:34.056Z,10.39
2018-10-04T00:34:42.696Z,10.41
2018-10-04T00:35:51.342Z,10.46
2018-10-04T00:37:00.244Z,10.51
2018-10-04T00:38:08.883Z,10.49
2018-10-04T00:39:17.528Z,10.53
2018-10-04T00:40:26.176Z,10.51
2018-10-04T00:41:35.076Z,10.53
2018-10-04T00:42:43.721Z,10.58
2018-10-04T00:43:52.356Z,10.57
2018-10-04T00:45:01.000Z,10.58
2018-10-04T00:46:09.638Z,10.55
2018-10-04T00:47:18.545Z,10.58
2018-10-04T00:48:27.443Z,10.51
2018-10-04T00:49:36.082Z,10.55
2018-10-04T00:50:44.729Z,10.62
2018-10-04T00:51:53.632Z,10.62
2018-10-04T00:53:02.539Z,10.57
2018-10-04T00:54:11.177Z,10.62
2018-10-04T00:55:20.080Z,10.61
2018-10-04T00:56:28.723Z,10.58
2018-10-04T00:57:37.623Z,10.59
2018-10-04T00:58:46.258Z,10.58
2018-10-04T00:59:54.901Z,10.72
2018-10-04T01:01:03.538Z,10.64
2018-10-04T01:02:12.188Z,10.69
2018-10-04T01:03:21.084Z,10.65
2018-10-04T01:04:29.987Z,10.68
2018-10-04T01:05:38.631Z,10.72
2018-10-04T01:06:47.541Z,10.69
2018-10-04T01:07:56.184Z,10.76
2018-10-04T01:09:04.814Z,10.69
2018-10-04T01:10:13.460Z,10.76
2018-10-04T01:11:22.101Z,10.83
2018-10-04T01:12:30.755Z,10.83
2018-10-04T01:13:39.648Z,10.8
2018-10-04T01:14:48.290Z,10.75
2018-10-04T01:15:56.927Z,10.77
2018-10-04T01:17:05.578Z,10.89
2018-10-04T01:18:14.211Z,10.86
2018-10-04T01:19:22.851Z,10.86
2018-10-04T01:20:31.489Z,10.82
2018-10-04T01:21:40.141Z,10.77
2018-10-04T01:22:48.780Z,10.87
2018-10-04T01:23:57.687Z,10.87
2018-10-04T01:25:06.326Z,10.8
2018-10-04T01:26:14.958Z,10.82
2018-10-04T01:27:23.615Z,10.86
2018-10-04T01:28:32.515Z,10.9
2018-10-04T01:29:41.157Z,10.86
2018-10-04T01:30:49.789Z,10.92
2018-10-04T01:31:58.435Z,10.94
2018-10-04T01:33:07.070Z,10.89
2018-10-04T01:34:15.715Z,10.97
2018-10-04T01:35:24.616Z,10.95
2018-10-04T01:36:33.268Z,10.94
2018-10-04T01:37:41.905Z,10.94
2018-10-04T01:38:50.557Z,10.97
2018-10-04T01:39:59.454Z,11.02
2018-10-04T01:41:08.098Z,10.97
2018-10-04T01:42:16.742Z,11.02
2018-10-04T01:43:25.387Z,10.98
2018-10-04T01:44:34.028Z,10.95
2018-10-04T01:45:42.661Z,10.95
2018-10-04T01:46:51.567Z,10.92
2018-10-04T01:48:00.207Z,10.95
2018-10-04T01:49:08.856Z,11
2018-10-04T01:50:17.487Z,10.92
2018-10-04T01:51:26.133Z,10.97
2018-10-04T01:52:34.767Z,10.95
2018-10-04T01:53:43.418Z,10.9
2018-10-04T01:54:52.049Z,10.95
2018-10-04T01:56:00.696Z,10.94
2018-10-04T01:57:09.335Z,10.98
2018-10-04T01:58:18.255Z,10.97
2018-10-04T01:59:26.901Z,11
2018-10-04T02:00:35.531Z,10.97
2018-10-04T02:01:44.428Z,10.97
2018-10-04T02:02:53.072Z,10.98
2018-10-04T02:04:01.983Z,11.01
2018-10-04T02:05:10.888Z,10.97
2018-10-04T02:06:19.530Z,10.97
2018-10-04T02:07:28.163Z,10.98
2018-10-04T02:08:36.816Z,10.97
2018-10-04T02:09:45.449Z,10.94
2018-10-04T02:10:54.095Z,10.95
2018-10-04T02:12:02.764Z,10.94
2018-10-04T02:13:11.748Z,10.9
2018-10-04T02:14:20.382Z,10.94
2018-10-04T02:15:29.025Z,10.97
2018-10-04T02:16:37.920Z,10.97
2018-10-04T02:17:46.827Z,10.92
2018-10-04T02:18:55.472Z,10.98
2018-10-04T02:20:04.114Z,10.98
2018-10-04T02:21:13.022Z,10.92
2018-10-04T02:22:21.653Z,10.97
2018-10-04T02:23:30.298Z,10.98
2018-10-04T02:24:38.933Z,10.95
2018-10-04T02:25:47.583Z,10.95
2018-10-04T02:26:56.213Z,11
2018-10-04T02:28:04.857Z,10.95
2018-10-04T02:29:13.757Z,11
2018-10-04T02:30:22.415Z,11.01
2018-10-04T02:31:31.570Z,11.01
2018-10-04T02:32:40.478Z,10.95
2018-10-04T02:33:49.122Z,11
2018-10-04T02:34:57.768Z,11.01
2018-10-04T02:36:06.409Z,11.08
2018-10-04T02:37:15.320Z,11.01
2018-10-04T02:38:23.958Z,11.02
2018-10-04T02:39:32.598Z,11.05
2018-10-04T02:40:41.250Z,11.04
2018-10-04T02:41:49.885Z,11.02
2018-10-04T02:42:58.529Z,10.98
2018-10-04T02:44:07.162Z,11.05
2018-10-04T02:45:15.812Z,11.01
2018-10-04T02:46:24.967Z,11.01
2018-10-04T02:47:33.882Z,11.04
2018-10-04T02:48:42.787Z,11.04
2018-10-04T02:49:51.768Z,11.05
2018-10-04T02:51:00.408Z,11.13
2018-10-04T02:52:09.311Z,11.04
2018-10-04T02:53:17.941Z,11.07
2018-10-04T02:54:26.588Z,11.05
2018-10-04T02:55:35.228Z,11.12
2018-10-04T02:56:44.136Z,11.13
2018-10-04T02:57:52.776Z,11.13
2018-10-04T02:59:01.413Z,11.1
2018-10-04T03:00:10.061Z,11.12
2018-10-04T03:01:18.968Z,11.12
2018-10-04T03:02:27.609Z,11.15
2018-10-04T03:03:36.249Z,11.15
2018-10-04T03:04:44.895Z,11.15
2018-10-04T03:05:53.546Z,11.13
2018-10-04T03:07:02.199Z,11.12
2018-10-04T03:08:10.830Z,11.13
2018-10-04T03:09:19.740Z,11.1
2018-10-04T03:10:28.379Z,11.1
2018-10-04T03:11:37.554Z,11.18
2018-10-04T03:12:46.197Z,11.13
2018-10-04T03:13:55.108Z,11.18
2018-10-04T03:15:03.745Z,11.18
2018-10-04T03:16:12.650Z,11.18
2018-10-04T03:17:21.301Z,11.18
2018-10-04T03:18:29.941Z,11.23
2018-10-04T03:19:38.583Z,11.16
2018-10-04T03:20:47.219Z,11.15
2018-10-04T03:21:55.865Z,11.18
2018-10-04T03:23:04.773Z,11.19
2018-10-04T03:24:13.676Z,11.18
2018-10-04T03:25:22.576Z,11.2
2018-10-04T03:26:31.228Z,11.19
2018-10-04T03:27:39.868Z,11.23
2018-10-04T03:28:48.513Z,11.19
2018-10-04T03:29:57.474Z,11.16
2018-10-04T03:31:06.105Z,11.23
2018-10-04T03:32:15.290Z,11.2
2018-10-04T03:33:24.205Z,11.25
2018-10-04T03:34:32.846Z,11.2
2018-10-04T03:35:42.070Z,11.19
2018-10-04T03:36:50.661Z,11.22
2018-10-04T03:37:59.301Z,11.19
2018-10-04T03:39:07.946Z,11.33
2018-10-04T03:40:16.585Z,11.3
2018-10-04T03:41:25.490Z,11.19
2018-10-04T03:42:34.129Z,11.22
2018-10-04T03:43:42.775Z,11.2
2018-10-04T03:44:51.413Z,11.3
2018-10-04T03:46:00.328Z,11.25
2018-10-04T03:47:08.968Z,11.2
2018-10-04T03:48:17.623Z,11.26
2018-10-04T03:49:26.528Z,11.25
2018-10-04T03:50:35.166Z,11.27
2018-10-04T03:51:44.073Z,11.25
2018-10-04T03:52:52.713Z,11.25
2018-10-04T03:54:01.360Z,11.33
2018-10-04T03:55:10.000Z,11.3
2018-10-04T03:56:18.644Z,11.3
2018-10-04T03:57:27.280Z,11.27
2018-10-04T03:58:35.927Z,11.22
2018-10-04T03:59:44.571Z,11.23
2018-10-04T04:00:53.475Z,11.2
2018-10-04T04:02:02.119Z,11.18
2018-10-04T04:03:10.755Z,11.16
2018-10-04T04:04:19.398Z,11.2
2018-10-04T04:05:28.045Z,11.2
2018-10-04T04:06:36.691Z,11.22
2018-10-04T04:07:45.330Z,11.15
2018-10-04T04:08:53.975Z,11.2
2018-10-04T04:10:03.154Z,11.2
2018-10-04T04:11:11.790Z,11.15
2018-10-04T04:12:20.436Z,11.19
2018-10-04T04:13:29.077Z,11.18
2018-10-04T04:14:37.722Z,11.12
2018-10-04T04:15:46.359Z,11.18
2018-10-04T04:16:55.271Z,11.19
2018-10-04T04:18:03.911Z,11.2
2018-10-04T04:19:12.819Z,11.16
2018-10-04T04:20:21.455Z,11.13
2018-10-04T04:21:30.365Z,11.16
2018-10-04T04:22:39.006Z,11.04
2018-10-04T04:23:47.909Z,11.16
2018-10-04T04:24:56.870Z,11.13
2018-10-04T04:26:06.086Z,11.16
2018-10-04T04:27:14.990Z,11.16
2018-10-04T04:28:23.899Z,11.15
2018-10-04T04:29:32.545Z,11.18
2018-10-04T04:30:41.471Z,11.08
2018-10-04T04:31:50.098Z,11.1
2018-10-04T04:32:58.734Z,11.1
2018-10-04T04:34:07.903Z,11.12
2018-10-04T04:35:16.799Z,11.1
2018-10-04T04:36:25.439Z,11.08
2018-10-04T04:37:34.345Z,11.1
2018-10-04T04:38:42.994Z,11.13
2018-10-04T04:39:51.629Z,11.15
2018-10-04T04:41:00.340Z,11.15
2018-10-04T04:42:08.910Z,11.12
2018-10-04T04:43:17.555Z,11.12
2018-10-04T04:44:26.192Z,11.16
2018-10-04T04:45:34.836Z,11.1
2018-10-04T04:46:43.578Z,11.1
2018-10-04T04:47:52.116Z,11.08
2018-10-04T04:49:00.759Z,11.1
2018-10-04T04:50:09.668Z,11.18
2018-10-04T04:51:18.315Z,11.12
2018-10-04T04:52:26.953Z,11.1
2018-10-04T04:53:35.599Z,11.05
2018-10-04T04:54:44.239Z,11.12
2018-10-04T04:55:52.882Z,11.1
2018-10-04T04:57:01.514Z,11.1
2018-10-04T04:58:10.163Z,11.13
2018-10-04T04:59:19.064Z,11.13
2018-10-04T05:00:27.712Z,11.13
2018-10-04T05:01:36.350Z,11.15
2018-10-04T05:02:44.994Z,11.15
2018-10-04T05:03:53.640Z,11.18
2018-10-04T05:05:02.282Z,11.19
2018-10-04T05:06:11.455Z,11.16
2018-10-04T05:07:20.408Z,11.13
2018-10-04T05:08:29.058Z,11.16
2018-10-04T05:09:37.959Z,11.12
2018-10-04T05:10:46.606Z,11.12
2018-10-04T05:11:55.244Z,11.08
2018-10-04T05:13:04.156Z,11.12
2018-10-04T05:14:12.792Z,11.16
2018-10-04T05:15:21.445Z,11.15
2018-10-04T05:16:30.076Z,11.1
2018-10-04T05:17:38.720Z,11.1
2018-10-04T05:18:47.360Z,11.12
2018-10-04T05:19:56.015Z,11.15
2018-10-04T05:21:05.187Z,11.13
2018-10-04T05:22:13.879Z,11.12
2018-10-04T05:23:22.739Z,11.1
2018-10-04T05:24:31.379Z,11.12
2018-10-04T05:25:40.305Z,11.08
2018-10-04T05:26:48.945Z,11.16
2018-10-04T05:27:57.674Z,11.13
2018-10-04T05:29:06.227Z,11.1
2018-10-04T05:30:15.143Z,11.13
2018-10-04T05:31:23.779Z,11.1
2018-10-04T05:32:32.423Z,11.04
2018-10-04T05:33:41.055Z,11.13
2018-10-04T05:34:49.706Z,11.13
2018-10-04T05:35:58.604Z,11.12
2018-10-04T05:37:07.404Z,11.07
2018-10-04T05:38:15.882Z,11.22
2018-10-04T05:39:24.525Z,11.12
2018-10-04T05:40:33.175Z,11.22
2018-10-04T05:41:41.815Z,11.22
2018-10-04T05:42:50.459Z,11.23
2018-10-04T05:43:59.092Z,11.26
2018-10-04T05:45:07.917Z,11.22
2018-10-04T05:46:16.396Z,11.15
2018-10-04T05:47:25.024Z,11.19
2018-10-04T05:48:33.915Z,11.25
2018-10-04T05:49:42.824Z,11.22
2018-10-04T05:50:51.985Z,11.18
2018-10-04T05:52:00.637Z,11.3
2018-10-04T05:53:09.369Z,11.22
2018-10-04T05:54:17.914Z,11.26
2018-10-04T05:55:26.557Z,11.22
2018-10-04T05:56:35.202Z,11.26
2018-10-04T05:57:43.841Z,11.25
2018-10-04T05:58:52.548Z,11.3
2018-10-04T06:00:01.124Z,11.31
2018-10-04T06:01:09.760Z,11.27
2018-10-04T06:02:18.404Z,11.3
2018-10-04T06:03:27.312Z,11.27
2018-10-04T06:04:35.954Z,11.3
2018-10-04T06:05:44.594Z,11.3
2018-10-04T06:06:53.245Z,11.35
2018-10-04T06:08:01.882Z,11.34
2018-10-04T06:09:10.525Z,11.27
2018-10-04T06:10:19.162Z,11.27
2018-10-04T06:11:28.068Z,11.38
2018-10-04T06:12:36.708Z,11.35
2018-10-04T06:13:45.624Z,11.41
2018-10-04T06:14:54.627Z,11.43
2018-10-04T06:16:03.199Z,11.4
2018-10-04T06:17:12.376Z,11.45
2018-10-04T06:18:21.023Z,11.38
2018-10-04T06:19:29.666Z,11.35
2018-10-04T06:20:38.302Z,11.44
2018-10-04T06:21:46.971Z,11.41
2018-10-04T06:22:55.584Z,11.48
2018-10-04T06:24:04.230Z,11.44
2018-10-04T06:25:12.867Z,11.49
2018-10-04T06:26:21.502Z,11.51
2018-10-04T06:27:30.142Z,11.48
2018-10-04T06:28:39.067Z,11.55
2018-10-04T06:29:47.692Z,11.56
2018-10-04T06:30:56.337Z,11.56
2018-10-04T06:32:05.252Z,11.55
2018-10-04T06:33:13.890Z,11.53
2018-10-04T06:34:22.526Z,11.6
2018-10-04T06:35:31.176Z,11.56
2018-10-04T06:36:39.803Z,11.65
2018-10-04T06:37:48.711Z,11.6
2018-10-04T06:38:57.352Z,11.6
2018-10-04T06:40:06.432Z,11.65
2018-10-04T06:41:15.058Z,11.67
2018-10-04T06:42:23.713Z,11.6
2018-10-04T06:43:32.339Z,11.78
2018-10-04T06:44:40.979Z,11.77
2018-10-04T06:45:49.620Z,11.73
2018-10-04T06:46:58.519Z,11.71
2018-10-04T06:48:07.168Z,11.68
2018-10-04T06:49:15.804Z,11.71
2018-10-04T06:50:24.798Z,11.74
2018-10-04T06:51:33.433Z,11.65
2018-10-04T06:52:42.078Z,11.77
2018-10-04T06:53:50.729Z,11.77
2018-10-04T06:54:59.366Z,11.83
2018-10-04T06:56:08.296Z,11.85
2018-10-04T06:57:16.912Z,11.91
2018-10-04T06:58:25.561Z,11.88
2018-10-04T06:59:34.201Z,11.86
2018-10-04T07:00:42.850Z,11.83
2018-10-04T07:01:51.485Z,11.93
2018-10-04T07:03:00.395Z,11.89
2018-10-04T07:04:09.032Z,11.85
2018-10-04T07:05:17.678Z,11.97
2018-10-04T07:06:26.311Z,12
2018-10-04T07:07:34.952Z,11.97
2018-10-04T07:08:43.596Z,11.93
2018-10-04T07:09:52.277Z,12
2018-10-04T07:11:00.889Z,12.08
2018-10-04T07:12:09.792Z,12.11
2018-10-04T07:13:18.424Z,12.02
2018-10-04T07:14:27.063Z,12.08
2018-10-04T07:15:35.714Z,12.08
2018-10-04T07:16:44.352Z,12.12
2018-10-04T07:17:52.998Z,12.15
2018-10-04T07:19:01.632Z,12.08
2018-10-04T07:20:10.311Z,12.21
2018-10-04T07:21:18.921Z,12.21
2018-10-04T07:22:27.566Z,12.21
2018-10-04T07:23:36.462Z,12.23
2018-10-04T07:24:45.112Z,12.23
2018-10-04T07:25:53.752Z,12.21
2018-10-04T07:27:02.395Z,12.21
2018-10-04T07:28:11.028Z,12.17
2018-10-04T07:29:19.671Z,12.21
2018-10-04T07:30:28.320Z,12.14
2018-10-04T07:31:36.993Z,12.15
2018-10-04T07:32:45.613Z,12.1
2018-10-04T07:33:54.511Z,12.14
2018-10-04T07:35:03.541Z,12.17
2018-10-04T07:36:12.057Z,12.14
2018-10-04T07:37:20.747Z,12.14
2018-10-04T07:38:29.341Z,12.21
2018-10-04T07:39:38.260Z,12.26
2018-10-04T07:40:47.157Z,12.32
2018-10-04T07:41:55.854Z,12.32
2018-10-04T07:43:04.438Z,12.32
2018-10-04T07:44:13.350Z,12.28
2018-10-04T07:45:21.990Z,12.23
2018-10-04T07:46:30.640Z,12.23
2018-10-04T07:47:39.277Z,12.36
2018-10-04T07:48:48.180Z,12.26
2018-10-04T07:49:56.819Z,12.4
2018-10-04T07:51:05.460Z,12.37
2018-10-04T07:52:14.113Z,12.39
2018-10-04T07:53:22.749Z,12.4
2018-10-04T07:54:31.385Z,12.35
2018-10-04T07:55:40.299Z,12.39
2018-10-04T07:56:48.937Z,12.44
2018-10-04T07:57:57.582Z,12.47
2018-10-04T07:59:06.219Z,12.5
2018-10-04T08:00:14.889Z,12.5
2018-10-04T08:01:23.504Z,12.51
2018-10-04T08:02:32.177Z,12.4
2018-10-04T08:03:41.358Z,12.5
2018-10-04T08:04:50.008Z,12.54
2018-10-04T08:05:59.008Z,12.53
2018-10-04T08:07:07.553Z,12.54
2018-10-04T08:08:16.191Z,12.65
2018-10-04T08:09:25.146Z,12.58
2018-10-04T08:10:34.260Z,12.62
2018-10-04T08:11:43.768Z,12.61
2018-10-04T08:12:53.009Z,12.7
2018-10-04T08:14:02.028Z,12.73
2018-10-04T08:15:11.222Z,12.88
2018-10-04T08:16:20.105Z,12.81
2018-10-04T08:17:28.753Z,12.99
2018-10-04T08:18:37.385Z,13.01
2018-10-04T08:19:46.038Z,13.03
2018-10-04T08:20:55.003Z,13.16
2018-10-04T08:22:03.596Z,13.26
2018-10-04T08:23:12.231Z,13.2
2018-10-04T08:24:20.880Z,13.19
2018-10-04T08:25:29.789Z,13.24
2018-10-04T08:26:38.699Z,13.27
2018-10-04T08:27:47.526Z,13.28
2018-10-04T08:28:56.829Z,13.3
2018-10-04T08:30:05.475Z,13.33
2018-10-04T08:31:14.375Z,13.42
2018-10-04T08:32:23.023Z,13.43
2018-10-04T08:33:31.657Z,13.4
2018-10-04T08:34:40.304Z,13.39
2018-10-04T08:35:48.943Z,13.54
2018-10-04T08:36:57.797Z,13.55
2018-10-04T08:38:06.459Z,13.52
2018-10-04T08:39:15.104Z,13.54
2018-10-04T08:40:23.742Z,13.64
2018-10-04T08:41:32.400Z,13.6
2018-10-04T08:42:41.040Z,13.71
2018-10-04T08:43:49.678Z,13.7
2018-10-04T08:44:58.319Z,13.73
2018-10-04T08:46:06.963Z,13.7
2018-10-04T08:47:15.615Z,13.8
2018-10-04T08:48:24.313Z,13.73
2018-10-04T08:49:32.901Z,13.85
2018-10-04T08:50:41.533Z,13.8
2018-10-04T08:51:50.183Z,13.82
2018-10-04T08:52:58.824Z,13.85
2018-10-04T08:54:07.785Z,13.83
2018-10-04T08:55:16.372Z,13.79
2018-10-04T08:56:25.021Z,13.85
2018-10-04T08:57:33.662Z,13.87
2018-10-04T08:58:42.313Z,13.93
2018-10-04T08:59:51.216Z,13.94
2018-10-04T09:00:59.860Z,13.95
2018-10-04T09:02:08.504Z,13.98
2018-10-04T09:03:17.152Z,14.08
2018-10-04T09:04:25.802Z,14.01
2018-10-04T09:05:34.436Z,14.08
2018-10-04T09:06:43.087Z,14.12
2018-10-04T09:07:51.903Z,14.16
2018-10-04T09:09:00.820Z,14.12
2018-10-04T09:10:09.459Z,14.18
2018-10-04T09:11:18.103Z,14.22
2018-10-04T09:12:26.747Z,14.18
2018-10-04T09:13:35.393Z,14.23
2018-10-04T09:14:44.031Z,14.23
2018-10-04T09:15:52.704Z,14.31
2018-10-04T09:17:01.364Z,14.31
2018-10-04T09:18:10.011Z,14.36
2018-10-04T09:19:18.650Z,14.25
2018-10-04T09:20:27.289Z,14.31
2018-10-04T09:21:35.936Z,14.3
2018-10-04T09:22:44.858Z,14.33
2018-10-04T09:23:53.511Z,14.36
2018-10-04T09:25:02.428Z,14.38
2018-10-04T09:26:11.165Z,14.37
2018-10-04T09:27:19.766Z,14.38
2018-10-04T09:28:28.414Z,14.4
2018-10-04T09:29:37.138Z,14.4
2018-10-04T09:30:45.784Z,14.38
2018-10-04T09:31:54.456Z,14.31
2018-10-04T09:33:03.410Z,14.4
2018-10-04T09:34:12.054Z,14.33
2018-10-04T09:35:20.703Z,14.28
2018-10-04T09:36:29.336Z,14.25
2018-10-04T09:37:38.260Z,14.28
2018-10-04T09:38:46.903Z,14.33
2018-10-04T09:39:55.548Z,14.28
2018-10-04T09:41:04.576Z,14.33
2018-10-04T09:42:14.158Z,14.36
2018-10-04T09:43:22.801Z,14.37
2018-10-04T09:44:31.448Z,14.41
2018-10-04T09:45:40.098Z,14.41
2018-10-04T09:46:48.738Z,14.41
2018-10-04T09:47:57.694Z,14.41
2018-10-04T09:49:06.336Z,14.48
2018-10-04T09:50:15.238Z,14.43
2018-10-04T09:51:23.898Z,14.45
2018-10-04T09:52:32.533Z,14.4
2018-10-04T09:53:41.214Z,14.4
2018-10-04T09:54:49.815Z,14.41
2018-10-04T09:55:58.459Z,14.48
2018-10-04T09:57:07.108Z,14.51
2018-10-04T09:58:15.753Z,14.53
2018-10-04T09:59:24.397Z,14.53
2018-10-04T10:00:33.030Z,14.62
2018-10-04T10:01:41.679Z,14.63
2018-10-04T10:02:50.323Z,14.74
2018-10-04T10:03:59.237Z,14.73
2018-10-04T10:05:07.870Z,14.85
2018-10-04T10:06:16.518Z,14.79
2018-10-04T10:07:25.161Z,14.87
2018-10-04T10:08:33.814Z,14.81
2018-10-04T10:09:42.449Z,14.9
2018-10-04T10:10:51.094Z,14.85
2018-10-04T10:11:59.734Z,14.85
2018-10-04T10:13:08.387Z,14.89
2018-10-04T10:14:17.029Z,14.81
2018-10-04T10:15:25.929Z,14.77
2018-10-04T10:16:34.574Z,14.79
2018-10-04T10:17:43.265Z,14.87
2018-10-04T10:18:51.916Z,14.81
2018-10-04T10:20:00.564Z,14.93
2018-10-04T10:21:09.609Z,14.9
2018-10-04T10:22:18.363Z,14.92
2018-10-04T10:23:27.176Z,14.93
2018-10-04T10:24:35.862Z,15.04
2018-10-04T10:25:44.843Z,15
2018-10-04T10:26:53.475Z,15.07
2018-10-04T10:28:02.236Z,15.07
2018-10-04T10:29:11.045Z,15.14
2018-10-04T10:30:19.970Z,15.12
2018-10-04T10:31:29.914Z,15.17
2018-10-04T10:32:38.831Z,15.26
2018-10-04T10:33:47.496Z,15.26
2018-10-04T10:34:56.453Z,15.29
2018-10-04T10:36:05.143Z,15.33
2018-10-04T10:37:13.824Z,15.44
2018-10-04T10:38:22.866Z,15.41
2018-10-04T10:39:31.553Z,15.39
2018-10-04T10:40:40.211Z,15.43
2018-10-04T10:41:48.893Z,15.51
2018-10-04T10:42:57.806Z,15.47
2018-10-04T10:44:06.446Z,15.5
2018-10-04T10:45:15.098Z,15.62
2018-10-04T10:46:23.779Z,15.54
2018-10-04T10:47:33.264Z,15.52
2018-10-04T10:48:44.301Z,15.5
2018-10-04T10:49:52.952Z,15.57
2018-10-04T10:51:01.595Z,15.59
2018-10-04T10:52:10.240Z,15.63
2018-10-04T10:53:19.252Z,15.48
2018-10-04T10:54:27.787Z,15.59
2018-10-04T10:55:36.440Z,15.67
2018-10-04T10:56:45.081Z,15.66
2018-10-04T10:57:53.729Z,15.72
2018-10-04T10:59:02.446Z,15.75
2018-10-04T11:00:11.346Z,15.75
2018-10-04T11:01:19.992Z,15.8
2018-10-04T11:02:28.899Z,15.88
2018-10-04T11:03:37.539Z,15.88
2018-10-04T11:04:46.188Z,15.85
2018-10-04T11:05:54.830Z,15.81
2018-10-04T11:07:03.477Z,15.81
2018-10-04T11:08:12.164Z,15.69
2018-10-04T11:09:21.366Z,15.7
2018-10-04T11:10:30.019Z,15.78
2018-10-04T11:11:38.928Z,15.7
2018-10-04T11:12:47.726Z,15.6
2018-10-04T11:13:56.647Z,15.67
2018-10-04T11:15:05.295Z,15.72
2018-10-04T11:16:13.999Z,15.75
2018-10-04T11:17:22.660Z,15.78
2018-10-04T11:18:31.301Z,15.75
2018-10-04T11:19:40.568Z,15.73
2018-10-04T11:20:49.211Z,15.75
2018-10-04T11:21:58.034Z,15.75
2018-10-04T11:23:06.907Z,15.73
2018-10-04T11:24:15.669Z,15.63
2018-10-04T11:25:24.394Z,15.75
2018-10-04T11:26:33.398Z,15.78
2018-10-04T11:27:43.171Z,15.76
2018-10-04T11:28:51.832Z,15.76
2018-10-04T11:30:00.481Z,15.8
2018-10-04T11:31:09.124Z,15.8
2018-10-04T11:32:17.780Z,15.81
2018-10-04T11:33:26.683Z,15.87
2018-10-04T11:34:35.330Z,15.85
2018-10-04T11:35:43.973Z,15.9
2018-10-04T11:36:52.888Z,15.99
2018-10-04T11:38:01.534Z,15.99
2018-10-04T11:39:10.222Z,16.03
2018-10-04T11:40:18.823Z,16.12
2018-10-04T11:41:27.732Z,16.16
2018-10-04T11:42:36.380Z,16.25
2018-10-04T11:43:45.028Z,16.26
2018-10-04T11:44:53.669Z,16.41
2018-10-04T11:46:02.576Z,16.47
2018-10-04T11:47:11.227Z,16.61
2018-10-04T11:48:19.884Z,16.55
2018-10-04T11:49:28.520Z,16.55
2018-10-04T11:50:37.170Z,16.65
2018-10-04T11:51:45.818Z,16.64
2018-10-04T11:52:54.463Z,16.68
2018-10-04T11:54:03.373Z,16.72
2018-10-04T11:55:12.024Z,16.74
2018-10-04T11:56:20.669Z,16.79
2018-10-04T11:57:29.317Z,16.83
2018-10-04T11:58:37.955Z,16.79
2018-10-04T11:59:46.603Z,16.83
2018-10-04T12:00:55.523Z,16.84
2018-10-04T12:02:04.166Z,16.89
2018-10-04T12:03:12.805Z,16.86
2018-10-04T12:04:21.458Z,16.99
2018-10-04T12:05:30.103Z,16.94
2018-10-04T12:06:39.133Z,17.04
2018-10-04T12:07:47.720Z,17.01
2018-10-04T12:08:56.366Z,17.01
2018-10-04T12:10:05.085Z,17.05
2018-10-04T12:11:13.997Z,17.19
2018-10-04T12:12:22.691Z,17.17
2018-10-04T12:13:32.089Z,17.14
2018-10-04T12:14:40.741Z,17.23
2018-10-04T12:15:49.385Z,17.24
2018-10-04T12:16:58.037Z,17.19
2018-10-04T12:18:06.954Z,17.24
2018-10-04T12:19:15.601Z,17.22
2018-10-04T12:20:24.507Z,17.27
2018-10-04T12:21:33.157Z,17.28
2018-10-04T12:22:41.801Z,17.34
2018-10-04T12:23:50.710Z,17.3
2018-10-04T12:24:59.368Z,17.41
2018-10-04T12:26:08.266Z,17.38
2018-10-04T12:27:16.915Z,17.47
2018-10-04T12:28:25.559Z,17.42
2018-10-04T12:29:34.471Z,17.46
2018-10-04T12:30:43.150Z,17.49
2018-10-04T12:31:51.770Z,17.47
2018-10-04T12:33:00.940Z,17.54
2018-10-04T12:34:09.854Z,17.57
2018-10-04T12:35:18.492Z,17.59
2018-10-04T12:36:27.144Z,17.6
2018-10-04T12:37:35.947Z,17.63
2018-10-04T12:38:44.442Z,17.63
2018-10-04T12:39:53.078Z,17.72
2018-10-04T12:41:01.727Z,17.69
2018-10-04T12:42:10.640Z,17.73
2018-10-04T12:43:19.553Z,17.75
2018-10-04T12:44:28.207Z,17.72
2018-10-04T12:45:36.843Z,17.79
2018-10-04T12:46:45.494Z,17.8
2018-10-04T12:47:55.556Z,17.88
2018-10-04T12:49:04.476Z,17.86
2018-10-04T12:50:13.118Z,17.79
2018-10-04T12:51:21.763Z,17.8
2018-10-04T12:52:30.675Z,17.79
2018-10-04T12:53:39.363Z,17.78
2018-10-04T12:54:48.006Z,17.79
2018-10-04T12:55:57.201Z,17.87
2018-10-04T12:57:06.110Z,17.84
2018-10-04T12:58:15.034Z,17.88
2018-10-04T12:59:23.679Z,17.86
2018-10-04T13:00:32.327Z,17.97
2018-10-04T13:01:41.543Z,17.94
2018-10-04T13:02:50.445Z,17.94
2018-10-04T13:03:59.105Z,18
2018-10-04T13:05:07.744Z,17.98
2018-10-04T13:06:16.414Z,18.05
2018-10-04T13:07:25.037Z,17.9
2018-10-04T13:08:34.031Z,17.95
2018-10-04T13:09:42.664Z,18.11
2018-10-04T13:10:51.312Z,18.08
2018-10-04T13:11:59.951Z,18.08
2018-10-04T13:13:08.873Z,18.09
2018-10-04T13:14:17.522Z,18.11
2018-10-04T13:15:26.429Z,18.18
2018-10-04T13:16:35.066Z,18.21
2018-10-04T13:17:43.976Z,18.16
2018-10-04T13:18:52.627Z,18.21
2018-10-04T13:20:01.285Z,18.19
2018-10-04T13:21:10.132Z,18.18
2018-10-04T13:22:19.323Z,18.12
2018-10-04T13:23:27.973Z,18.23
2018-10-04T13:24:36.619Z,18.18
2018-10-04T13:25:45.535Z,18.11
2018-10-04T13:26:54.176Z,18.09
2018-10-04T13:28:03.209Z,18.12
2018-10-04T13:29:12.119Z,18.08
2018-10-04T13:30:20.771Z,18.11
2018-10-04T13:31:29.409Z,18.12
2018-10-04T13:32:38.055Z,18.13
2018-10-04T13:33:46.963Z,17.98
2018-10-04T13:34:55.617Z,18.09
2018-10-04T13:36:04.267Z,18.11
2018-10-04T13:37:12.910Z,18.03
2018-10-04T13:38:21.554Z,18.09
2018-10-04T13:39:30.200Z,18.12
2018-10-04T13:40:39.223Z,18.05
2018-10-04T13:41:48.185Z,18.05
2018-10-04T13:42:56.833Z,18.16
2018-10-04T13:44:05.473Z,18.09
2018-10-04T13:45:15.178Z,18.13
2018-10-04T13:46:23.826Z,18.11
2018-10-04T13:47:32.477Z,18.12
2018-10-04T13:48:41.384Z,18.12
2018-10-04T13:49:50.035Z,18.23
2018-10-04T13:50:58.679Z,18.3
2018-10-04T13:52:07.327Z,18.31
2018-10-04T13:53:16.251Z,18.36
2018-10-04T13:54:24.903Z,18.28
2018-10-04T13:55:33.816Z,18.36
2018-10-04T13:56:42.464Z,18.37
2018-10-04T13:57:51.115Z,18.28
2018-10-04T13:59:00.108Z,18.33
2018-10-04T14:00:08.663Z,18.31
2018-10-04T14:01:17.308Z,18.28
2018-10-04T14:02:25.970Z,18.24
2018-10-04T14:03:35.157Z,18.24
2018-10-04T14:04:43.806Z,18.33
2018-10-04T14:05:52.558Z,18.31
2018-10-04T14:07:01.104Z,18.31
2018-10-04T14:08:10.495Z,18.21
2018-10-04T14:09:19.452Z,18.21
2018-10-04T14:10:28.058Z,18.21
2018-10-04T14:11:36.708Z,18.21
2018-10-04T14:12:45.354Z,18.21
2018-10-04T14:13:54.002Z,18.23
2018-10-04T14:15:02.654Z,18.24
2018-10-04T14:16:11.819Z,18.24
2018-10-04T14:17:20.482Z,18.21
2018-10-04T14:18:29.148Z,18.24
2018-10-04T14:19:37.794Z,18.24
2018-10-04T14:20:46.433Z,18.27
2018-10-04T14:21:55.085Z,18.3
2018-10-04T14:23:03.733Z,18.23
2018-10-04T14:24:12.644Z,18.27
2018-10-04T14:25:21.287Z,18.34
2018-10-04T14:26:29.936Z,18.34
2018-10-04T14:27:38.572Z,18.21
2018-10-04T14:28:47.225Z,18.24
2018-10-04T14:29:55.867Z,18.3
2018-10-04T14:31:04.519Z,18.26
2018-10-04T14:32:13.171Z,18.27
2018-10-04T14:33:21.810Z,18.21
2018-10-04T14:34:30.459Z,18.27
2018-10-04T14:35:39.371Z,18.26
2018-10-04T14:36:48.281Z,18.24
2018-10-04T14:37:56.926Z,18.13
2018-10-04T14:39:05.650Z,18.24
2018-10-04T14:40:14.220Z,18.23
2018-10-04T14:41:23.197Z,18.23
2018-10-04T14:42:32.109Z,18.16
2018-10-04T14:43:41.026Z,18.13
2018-10-04T14:44:49.660Z,18.26
2018-10-04T14:45:58.339Z,18.12
2018-10-04T14:47:06.959Z,18.09
2018-10-04T14:48:15.614Z,18.12
2018-10-04T14:49:24.259Z,18.11